Time;durP1;ratioP1;P1;durP2;ratioP2;P2;SDS_P1;SDS_P2;PMS_P1;PMS_P2;Temp;Humidity;BMP_temperature;BMP_pressure;BME280_temperature;BME280_humidity;BME280_pressure;Samples;Min_cycle;Max_cycle;Signal;HPM_P1;HPM_P2
2022/10/01 00:02:04;;;;;;;7.03;3.92;;;9.40;99.90;;;;;;4990055;28;20038;-73
2022/10/01 00:04:29;;;;;;;8.48;4.00;;;9.30;99.90;;;;;;5005728;28;20153;-74
2022/10/01 00:06:58;;;;;;;6.70;3.90;;;9.30;99.90;;;;;;4991301;28;20082;-74
2022/10/01 00:09:25;;;;;;;5.13;3.28;;;9.30;99.90;;;;;;4990484;28;20121;-74
2022/10/01 00:11:52;;;;;;;7.13;4.30;;;9.40;99.90;;;;;;5006643;28;20042;-74
2022/10/01 00:14:18;;;;;;;8.27;4.25;;;9.30;99.90;;;;;;4989746;28;20049;-73
2022/10/01 00:16:44;;;;;;;8.98;3.85;;;9.30;99.90;;;;;;4991334;28;20120;-74
2022/10/01 00:19:13;;;;;;;7.68;4.20;;;9.40;99.90;;;;;;4991205;28;20192;-74
2022/10/01 00:21:39;;;;;;;7.97;3.72;;;9.40;99.90;;;;;;4986578;28;20042;-74
2022/10/01 00:24:05;;;;;;;6.78;3.95;;;9.40;99.90;;;;;;4970329;28;20038;-74
2022/10/01 00:26:34;;;;;;;6.40;3.88;;;9.40;99.90;;;;;;4971886;28;20402;-74
2022/10/01 00:29:07;;;;;;;7.47;4.15;;;9.40;99.90;;;;;;4971855;28;20058;-74
2022/10/01 00:31:33;;;;;;;9.05;4.63;;;9.40;99.90;;;;;;4970630;28;20137;-74
2022/10/01 00:34:01;;;;;;;10.02;5.10;;;9.40;99.90;;;;;;4974701;28;20063;-74
2022/10/01 00:36:27;;;;;;;7.72;4.10;;;9.40;99.90;;;;;;4975360;28;20022;-74
2022/10/01 00:38:59;;;;;;;8.80;4.47;;;9.40;99.90;;;;;;4975380;28;20030;-74
2022/10/01 00:41:31;;;;;;;7.57;4.68;;;9.40;99.90;;;;;;4974364;28;20027;-74
2022/10/01 00:44:25;;;;;;;10.02;4.72;;;9.40;99.90;;;;;;4975128;28;20027;-74
2022/10/01 00:46:54;;;;;;;11.20;4.78;;;9.30;99.90;;;;;;4990121;28;20026;-74
2022/10/01 00:49:25;;;;;;;5.85;4.05;;;9.40;99.90;;;;;;4992137;28;20030;-75
2022/10/01 00:51:56;;;;;;;5.03;3.33;;;9.30;99.90;;;;;;4993568;28;20116;-74
2022/10/01 00:54:35;;;;;;;;;;;9.30;99.90;;;;;;4993987;28;20038;-74
2022/10/01 00:57:02;;;;;;;5.75;3.33;;;9.30;99.90;;;;;;4993466;28;19913;-74
2022/10/01 00:59:30;;;;;;;11.13;3.40;;;9.30;99.90;;;;;;4994324;28;20030;-75
2022/10/01 01:01:55;;;;;;;6.15;3.03;;;9.40;99.90;;;;;;4978549;28;20037;-75
2022/10/01 01:04:21;;;;;;;5.65;2.92;;;9.50;99.90;;;;;;4986516;28;20122;-74
2022/10/01 01:07:00;;;;;;;7.32;3.95;;;9.40;99.90;;;;;;4980983;28;20394;-74
2022/10/01 01:09:48;;;;;;;3.80;2.75;;;9.40;99.90;;;;;;4988528;28;20106;-74
2022/10/01 01:12:30;;;;;;;9.10;3.25;;;9.50;99.90;;;;;;4973615;28;20039;-75
2022/10/01 01:15:13;;;;;;;4.43;3.20;;;9.50;99.90;;;;;;4986505;28;20506;-74
2022/10/01 01:18:08;;;;;;;5.88;2.88;;;9.50;99.90;;;;;;4978024;28;20049;-75
2022/10/01 01:20:52;;;;;;;6.30;3.65;;;9.60;99.90;;;;;;4994005;28;20033;-73
2022/10/01 01:23:17;;;;;;;6.57;3.78;;;9.50;99.90;;;;;;4992961;28;20529;-74
2022/10/01 01:26:20;;;;;;;6.40;2.53;;;9.60;99.90;;;;;;4974703;28;20070;-72
2022/10/01 01:28:52;;;;;;;5.07;2.85;;;9.60;99.90;;;;;;4974391;28;20035;-72
2022/10/01 01:31:26;;;;;;;3.35;2.28;;;9.70;99.90;;;;;;4989429;28;20097;-73
2022/10/01 01:33:54;;;;;;;6.25;3.67;;;9.80;99.90;;;;;;4988660;28;20038;-73
2022/10/01 01:36:35;;;;;;;4.18;2.55;;;9.80;99.90;;;;;;4989146;28;20027;-73
2022/10/01 01:39:05;;;;;;;3.58;2.40;;;9.90;99.90;;;;;;4989013;28;20111;-73
2022/10/01 01:41:37;;;;;;;10.68;3.95;;;9.90;99.90;;;;;;4978712;28;20070;-73
2022/10/01 01:44:09;;;;;;;8.45;2.92;;;10.00;99.90;;;;;;4968326;28;20031;-73
2022/10/01 01:46:40;;;;;;;3.85;2.47;;;10.10;99.90;;;;;;4969409;28;20031;-73
2022/10/01 01:49:07;;;;;;;6.65;3.42;;;10.10;99.90;;;;;;4986850;28;20026;-73
2022/10/01 01:51:46;;;;;;;3.65;2.50;;;10.20;99.90;;;;;;4991774;28;20038;-73
2022/10/01 01:54:12;;;;;;;6.68;3.50;;;10.30;99.90;;;;;;4992916;28;20125;-73
2022/10/01 01:56:38;;;;;;;4.10;2.78;;;10.20;99.90;;;;;;4993318;28;20118;-73
2022/10/01 01:59:04;;;;;;;6.20;2.97;;;10.10;99.90;;;;;;4992096;28;20027;-74
2022/10/01 02:01:41;;;;;;;10.70;2.53;;;10.00;99.90;;;;;;4992056;28;20113;-73
2022/10/01 02:04:58;;;;;;;8.25;3.28;;;10.00;99.90;;;;;;4993018;28;20465;-73
2022/10/01 02:07:46;;;;;;;3.67;2.33;;;9.90;99.90;;;;;;4988259;28;20102;-74
2022/10/01 02:10:54;;;;;;;5.05;2.88;;;9.90;99.90;;;;;;4993396;28;20034;-73
2022/10/01 02:13:39;;;;;;;7.88;2.40;;;9.90;99.90;;;;;;4972483;28;20094;-73
2022/10/01 02:16:43;;;;;;;5.30;2.13;;;9.90;99.90;;;;;;4987544;28;20035;-75
2022/10/01 02:19:32;;;;;;;5.07;3.25;;;9.90;99.90;;;;;;5001152;28;20462;-73
2022/10/01 02:22:03;;;;;;;3.80;2.25;;;9.90;99.90;;;;;;4952999;28;20031;-73
2022/10/01 02:24:45;;;;;;;;;;;9.90;99.90;;;;;;4954588;29;20135;-73
2022/10/01 02:27:23;;;;;;;3.75;2.40;;;9.90;99.90;;;;;;4968328;28;19914;-73
2022/10/01 02:29:51;;;;;;;8.10;2.60;;;10.00;99.90;;;;;;4954271;28;20031;-73
2022/10/01 02:32:18;;;;;;;4.85;2.85;;;10.10;99.90;;;;;;4952852;28;20377;-73
2022/10/01 02:34:46;;;;;;;4.93;2.58;;;10.00;99.90;;;;;;4969005;28;20034;-73
2022/10/01 02:37:13;;;;;;;4.43;2.42;;;10.00;99.90;;;;;;4975049;28;20780;-73
2022/10/01 02:39:41;;;;;;;4.43;2.88;;;10.10;99.90;;;;;;4972001;28;20475;-73
2022/10/01 02:42:12;;;;;;;6.00;2.90;;;10.10;99.90;;;;;;4971925;28;20035;-74
2022/10/01 02:44:41;;;;;;;4.03;2.45;;;10.00;99.90;;;;;;4971748;28;20030;-74
2022/10/01 02:47:28;;;;;;;4.40;2.10;;;10.00;99.90;;;;;;4973157;28;20027;-74
2022/10/01 02:49:53;;;;;;;2.47;1.85;;;9.90;99.90;;;;;;4991209;28;20490;-73
2022/10/01 02:52:40;;;;;;;4.43;2.67;;;9.90;99.90;;;;;;4991070;28;20038;-75
2022/10/01 02:55:18;;;;;;;3.47;2.17;;;9.90;99.90;;;;;;4992485;28;20371;-74
2022/10/01 02:57:43;;;;;;;5.47;2.83;;;9.90;99.90;;;;;;4990066;28;20049;-74
2022/10/01 03:00:14;;;;;;;2.92;2.00;;;9.80;99.90;;;;;;4991143;28;20034;-74
2022/10/01 03:02:40;;;;;;;4.53;2.57;;;9.80;99.90;;;;;;4979805;28;20023;-74
2022/10/01 03:05:06;;;;;;;4.20;1.90;;;9.70;99.90;;;;;;4971710;28;20053;-74
2022/10/01 03:07:34;;;;;;;3.72;1.92;;;9.70;99.90;;;;;;4971996;28;20035;-74
2022/10/01 03:10:02;;;;;;;4.25;2.15;;;9.70;99.90;;;;;;4972658;28;20434;-75
2022/10/01 03:12:28;;;;;;;4.00;1.50;;;9.80;99.90;;;;;;4969419;28;20472;-74
2022/10/01 03:14:53;;;;;;;4.68;2.15;;;9.70;99.90;;;;;;4956971;28;20117;-74
2022/10/01 03:17:19;;;;;;;3.05;1.90;;;9.80;99.90;;;;;;4989082;28;20090;-74
2022/10/01 03:19:45;;;;;;;3.88;2.15;;;9.80;99.90;;;;;;4984432;28;20035;-75
2022/10/01 03:22:13;;;;;;;2.85;2.22;;;9.80;99.90;;;;;;4972116;28;20035;-74
2022/10/01 03:24:39;;;;;;;8.07;1.85;;;9.80;99.90;;;;;;4971967;28;20042;-74
2022/10/01 03:27:05;;;;;;;3.35;1.33;;;9.80;99.90;;;;;;4987237;28;20038;-74
2022/10/01 03:29:31;;;;;;;3.22;1.90;;;9.80;99.90;;;;;;4972213;28;20026;-74
2022/10/01 03:31:56;;;;;;;3.92;2.15;;;9.90;99.90;;;;;;4987099;28;20105;-74
2022/10/01 03:34:22;;;;;;;4.40;2.42;;;9.90;99.90;;;;;;4971693;28;20038;-74
2022/10/01 03:36:50;;;;;;;7.50;2.40;;;9.90;99.90;;;;;;4964700;28;20042;-74
2022/10/01 03:39:16;;;;;;;6.07;3.00;;;9.90;99.90;;;;;;4966909;28;20125;-74
2022/10/01 03:41:42;;;;;;;5.20;1.88;;;10.00;99.90;;;;;;4967189;28;20110;-74
2022/10/01 03:44:08;;;;;;;2.97;1.75;;;10.00;99.90;;;;;;4951870;28;20031;-74
2022/10/01 03:46:34;;;;;;;3.28;1.92;;;10.00;99.90;;;;;;4952864;29;20063;-74
2022/10/01 03:49:00;;;;;;;3.80;2.03;;;10.00;99.90;;;;;;4982942;28;20470;-74
2022/10/01 03:51:27;;;;;;;7.63;2.88;;;10.00;99.90;;;;;;5006351;28;20027;-75
2022/10/01 03:53:54;;;;;;;3.95;2.00;;;10.00;99.90;;;;;;4990990;28;20088;-74
2022/10/01 03:56:20;;;;;;;3.65;1.67;;;10.00;99.90;;;;;;4990112;28;20045;-74
2022/10/01 03:58:46;;;;;;;2.80;1.80;;;10.00;99.90;;;;;;4991177;28;20034;-74
2022/10/01 04:01:11;;;;;;;3.67;1.63;;;10.00;99.90;;;;;;4990901;28;20041;-73
2022/10/01 04:03:37;;;;;;;2.70;1.73;;;10.10;99.90;;;;;;4990846;28;20116;-74
2022/10/01 04:06:03;;;;;;;9.10;2.10;;;10.10;99.90;;;;;;4991134;28;20493;-73
2022/10/01 04:08:29;;;;;;;10.65;2.13;;;10.10;99.90;;;;;;4993655;28;20153;-74
2022/10/01 04:10:54;;;;;;;3.97;1.55;;;10.00;99.90;;;;;;4988218;28;20102;-74
2022/10/01 04:13:20;;;;;;;2.83;1.85;;;10.10;99.90;;;;;;4975565;28;20035;-74
2022/10/01 04:15:47;;;;;;;1.65;1.42;;;10.10;99.90;;;;;;4964783;28;20035;-73
2022/10/01 04:18:16;;;;;;;2.95;1.58;;;10.20;99.90;;;;;;4989098;28;20500;-74
2022/10/01 04:20:41;;;;;;;5.75;2.10;;;10.20;99.90;;;;;;4994871;28;20039;-74
2022/10/01 04:23:07;;;;;;;2.45;1.27;;;10.20;99.90;;;;;;4982953;28;20490;-74
2022/10/01 04:25:33;;;;;;;2.30;1.13;;;10.30;99.90;;;;;;4975674;28;20059;-74
2022/10/01 04:28:09;;;;;;;3.03;1.75;;;10.30;99.90;;;;;;4975347;28;20078;-74
2022/10/01 04:30:39;;;;;;;4.00;2.78;;;10.30;99.90;;;;;;4974118;28;20491;-73
2022/10/01 04:33:07;;;;;;;5.50;2.00;;;10.30;99.90;;;;;;4990109;28;20126;-73
2022/10/01 04:35:33;;;;;;;4.90;2.03;;;10.30;99.90;;;;;;4975421;28;20035;-74
2022/10/01 04:38:12;;;;;;;4.85;2.28;;;10.20;99.90;;;;;;4975392;28;20221;-74
2022/10/01 04:40:38;;;;;;;2.92;1.63;;;10.20;99.90;;;;;;4973755;28;20038;-73
2022/10/01 04:43:08;;;;;;;2.65;1.48;;;10.20;99.90;;;;;;4974926;28;20034;-73
2022/10/01 04:45:37;;;;;;;2.95;1.85;;;10.20;99.90;;;;;;4990242;28;20030;-74
2022/10/01 04:48:04;;;;;;;1.77;1.23;;;10.20;99.90;;;;;;4982906;28;20027;-74
2022/10/01 04:50:31;;;;;;;4.97;2.63;;;10.10;99.90;;;;;;4994295;28;20034;-74
2022/10/01 04:52:56;;;;;;;3.05;1.58;;;10.00;99.90;;;;;;4993087;28;20027;-74
2022/10/01 04:55:23;;;;;;;1.63;1.10;;;10.10;99.90;;;;;;4994285;28;20088;-73
2022/10/01 04:57:49;;;;;;;10.13;1.73;;;10.10;99.90;;;;;;4994555;28;20038;-74
2022/10/01 05:00:25;;;;;;;5.10;1.70;;;10.00;99.90;;;;;;4993173;28;20038;-74
2022/10/01 05:02:51;;;;;;;2.72;1.65;;;10.00;99.90;;;;;;4976591;28;20030;-74
2022/10/01 05:05:20;;;;;;;4.95;1.83;;;10.00;99.90;;;;;;4989470;28;20035;-74
2022/10/01 05:07:47;;;;;;;3.85;1.80;;;10.10;99.90;;;;;;4975015;28;20042;-74
2022/10/01 05:10:18;;;;;;;3.85;1.60;;;10.20;99.90;;;;;;4972258;28;20027;-74
2022/10/01 05:12:45;;;;;;;3.42;1.55;;;10.20;99.90;;;;;;4955256;28;20030;-74
2022/10/01 05:15:11;;;;;;;3.92;1.70;;;10.20;99.90;;;;;;4961479;28;20031;-74
2022/10/01 05:17:37;;;;;;;2.40;1.25;;;10.20;99.90;;;;;;4978807;28;20034;-74
2022/10/01 05:20:06;;;;;;;3.35;1.60;;;10.20;99.90;;;;;;4992892;28;20041;-73
2022/10/01 05:22:32;;;;;;;4.00;1.67;;;10.20;99.90;;;;;;4992201;28;20173;-74
2022/10/01 05:24:59;;;;;;;9.80;2.15;;;10.20;99.90;;;;;;4992778;28;20541;-74
2022/10/01 05:27:26;;;;;;;2.78;1.33;;;10.20;99.90;;;;;;4993675;28;20408;-74
2022/10/01 05:29:52;;;;;;;3.97;1.70;;;10.20;99.90;;;;;;4993519;28;20160;-75
2022/10/01 05:32:18;;;;;;;2.38;1.35;;;10.10;99.90;;;;;;4993062;28;20053;-74
2022/10/01 05:34:44;;;;;;;1.58;1.17;;;10.10;99.90;;;;;;4992006;28;20470;-75
2022/10/01 05:37:10;;;;;;;2.95;1.50;;;10.10;99.90;;;;;;4992177;28;20116;-74
2022/10/01 05:39:36;;;;;;;3.00;1.58;;;10.00;99.90;;;;;;4993755;28;20027;-74
2022/10/01 05:42:02;;;;;;;5.28;1.83;;;10.00;99.90;;;;;;4993341;28;20045;-74
2022/10/01 05:44:28;;;;;;;2.30;1.30;;;10.00;99.90;;;;;;4993134;28;20069;-74
2022/10/01 05:46:54;;;;;;;2.60;1.23;;;10.00;99.90;;;;;;4993305;28;20031;-74
2022/10/01 05:49:23;;;;;;;2.13;1.08;;;10.00;99.90;;;;;;4993554;28;20041;-74
2022/10/01 05:51:49;;;;;;;2.88;1.80;;;10.00;99.90;;;;;;4992261;28;20031;-74
2022/10/01 05:54:18;;;;;;;2.38;1.75;;;10.00;99.90;;;;;;4993223;28;20084;-74
2022/10/01 05:56:44;;;;;;;1.65;1.15;;;10.00;99.90;;;;;;4991855;28;20034;-75
2022/10/01 05:59:11;;;;;;;3.10;1.88;;;10.00;99.90;;;;;;4993047;28;20120;-74
2022/10/01 06:01:36;;;;;;;5.18;2.00;;;10.00;99.90;;;;;;4984188;28;20039;-74
2022/10/01 06:04:02;;;;;;;5.00;1.80;;;10.00;99.90;;;;;;4973476;28;20035;-75
2022/10/01 06:06:28;;;;;;;2.67;1.35;;;10.10;99.90;;;;;;4973579;28;20391;-74
2022/10/01 06:08:54;;;;;;;2.05;1.35;;;10.10;99.90;;;;;;4988546;28;20067;-75
2022/10/01 06:11:23;;;;;;;1.88;1.23;;;10.00;99.90;;;;;;4973630;28;20031;-74
2022/10/01 06:13:49;;;;;;;2.70;1.23;;;10.00;99.90;;;;;;4988097;28;20023;-74
2022/10/01 06:16:15;;;;;;;2.13;1.48;;;10.00;99.90;;;;;;4973358;28;20038;-74
2022/10/01 06:18:41;;;;;;;4.32;1.30;;;10.00;99.90;;;;;;4981393;28;20034;-74
2022/10/01 06:21:08;;;;;;;3.30;1.98;;;10.10;99.90;;;;;;4971795;28;20097;-73
2022/10/01 06:23:35;;;;;;;3.00;1.50;;;10.10;99.90;;;;;;4972979;28;20053;-73
2022/10/01 06:26:04;;;;;;;2.45;1.42;;;10.10;99.90;;;;;;4972366;28;20554;-73
2022/10/01 06:28:30;;;;;;;5.82;2.28;;;10.20;99.90;;;;;;4972033;28;20078;-73
2022/10/01 06:30:59;;;;;;;2.08;1.23;;;10.20;99.90;;;;;;4973003;28;20027;-74
2022/10/01 06:33:25;;;;;;;1.75;1.15;;;10.20;99.90;;;;;;4973117;28;20394;-74
2022/10/01 06:35:51;;;;;;;3.08;1.55;;;10.30;99.90;;;;;;4973640;28;20031;-74
2022/10/01 06:38:20;;;;;;;2.92;2.03;;;10.30;99.90;;;;;;4968311;28;20058;-73
2022/10/01 06:40:59;;;;;;;2.58;1.15;;;10.30;99.90;;;;;;4968817;28;20035;-74
2022/10/01 06:43:28;;;;;;;2.58;1.23;;;10.40;99.90;;;;;;4952764;28;20420;-75
2022/10/01 06:45:55;;;;;;;2.20;1.40;;;10.50;99.90;;;;;;4953986;29;20458;-74
2022/10/01 06:48:21;;;;;;;1.85;1.58;;;10.50;99.90;;;;;;4987993;28;20114;-72
2022/10/01 06:50:49;;;;;;;2.42;1.42;;;10.50;99.90;;;;;;4990881;28;20454;-73
2022/10/01 06:53:16;;;;;;;2.00;1.15;;;10.50;99.90;;;;;;4991998;28;20038;-72
2022/10/01 06:55:43;;;;;;;2.20;1.25;;;10.50;99.90;;;;;;5007405;28;20034;-74
2022/10/01 06:58:16;;;;;;;1.80;0.98;;;10.50;99.90;;;;;;4990805;28;20081;-73
2022/10/01 07:00:43;;;;;;;2.35;1.13;;;10.50;99.90;;;;;;4990732;28;20058;-74
2022/10/01 07:03:15;;;;;;;2.88;1.48;;;10.50;99.90;;;;;;4990738;28;20486;-73
2022/10/01 07:05:41;;;;;;;1.80;1.23;;;10.50;99.90;;;;;;4990923;28;20022;-73
2022/10/01 07:08:07;;;;;;;1.15;0.93;;;10.40;99.90;;;;;;4982996;28;20034;-73
2022/10/01 07:10:34;;;;;;;2.78;1.50;;;10.40;99.90;;;;;;4983098;28;20034;-75
2022/10/01 07:13:13;;;;;;;2.38;1.30;;;10.50;99.90;;;;;;4967944;28;20023;-74
2022/10/01 07:15:39;;;;;;;1.95;1.42;;;10.40;99.90;;;;;;4967741;28;20117;-74
2022/10/01 07:18:09;;;;;;;1.65;1.02;;;10.50;99.90;;;;;;4968545;28;20094;-74
2022/10/01 07:20:38;;;;;;;5.28;1.92;;;10.50;99.90;;;;;;4989729;28;20547;-74
2022/10/01 07:23:06;;;;;;;1.88;1.00;;;10.40;99.90;;;;;;4978384;28;20027;-75
2022/10/01 07:25:32;;;;;;;2.00;0.98;;;10.40;99.90;;;;;;4962968;28;20047;-76
2022/10/01 07:28:03;;;;;;;1.23;0.88;;;10.40;99.90;;;;;;4951322;28;20080;-69
2022/10/01 07:30:29;;;;;;;1.17;1.08;;;10.40;99.90;;;;;;4952972;28;20746;-73
2022/10/01 07:32:55;;;;;;;2.97;1.15;;;10.40;99.90;;;;;;4952381;28;20118;-75
2022/10/01 07:35:21;;;;;;;3.92;1.48;;;10.40;99.90;;;;;;4953053;28;20063;-73
2022/10/01 07:37:49;;;;;;;0.95;0.73;;;10.40;99.90;;;;;;4952466;28;20156;-73
2022/10/01 07:40:16;;;;;;;2.35;1.42;;;10.50;99.90;;;;;;4967767;28;20039;-74
2022/10/01 07:42:53;;;;;;;2.10;1.08;;;10.50;99.90;;;;;;4951768;28;20501;-73
2022/10/01 07:45:20;;;;;;;2.42;1.17;;;10.50;99.90;;;;;;4966419;28;20023;-73
2022/10/01 07:47:59;;;;;;;2.40;1.17;;;10.50;99.90;;;;;;4980553;28;20497;-73
2022/10/01 07:50:29;;;;;;;1.88;1.55;;;10.50;99.90;;;;;;4990254;28;20038;-74
2022/10/01 07:52:57;;;;;;;1.90;1.25;;;10.50;99.90;;;;;;4974096;28;20058;-74
2022/10/01 07:55:26;;;;;;;1.02;0.90;;;10.50;99.90;;;;;;4989811;28;20035;-74
2022/10/01 07:57:55;;;;;;;2.50;1.23;;;10.60;99.90;;;;;;4990068;28;20089;-74
2022/10/01 08:00:23;;;;;;;2.67;1.58;;;10.60;99.90;;;;;;4990093;28;20065;-73
2022/10/01 08:02:52;;;;;;;2.30;1.38;;;10.60;99.90;;;;;;4990690;28;20502;-74
2022/10/01 08:05:20;;;;;;;2.53;1.42;;;10.60;99.90;;;;;;4990914;28;20164;-73
2022/10/01 08:07:48;;;;;;;3.97;1.38;;;10.60;99.90;;;;;;4991376;28;20129;-74
2022/10/01 08:10:16;;;;;;;1.30;1.00;;;10.60;99.90;;;;;;4988413;28;20026;-72
2022/10/01 08:12:43;;;;;;;1.35;1.20;;;10.60;99.90;;;;;;4986458;28;20065;-73
2022/10/01 08:15:12;;;;;;;0.68;0.65;;;10.60;99.90;;;;;;4971611;28;20057;-74
2022/10/01 08:17:38;;;;;;;3.85;1.30;;;10.60;99.90;;;;;;4990630;28;20522;-74
2022/10/01 08:20:07;;;;;;;1.85;1.25;;;10.50;99.90;;;;;;4971248;28;20089;-74
2022/10/01 08:22:33;;;;;;;2.45;1.30;;;10.50;99.90;;;;;;4970095;28;20039;-74
2022/10/01 08:24:59;;;;;;;1.98;0.85;;;10.60;99.90;;;;;;4971929;28;20041;-74
2022/10/01 08:27:26;;;;;;;1.55;0.82;;;10.50;99.90;;;;;;4929112;28;20039;-74
2022/10/01 08:29:53;;;;;;;0.70;0.70;;;10.50;99.90;;;;;;4967478;28;20810;-72
2022/10/01 08:32:20;;;;;;;2.10;1.17;;;10.50;99.90;;;;;;4966630;28;20035;-74
2022/10/01 08:34:47;;;;;;;1.80;1.23;;;10.50;99.90;;;;;;4983170;28;20093;-74
2022/10/01 08:37:13;;;;;;;2.53;1.20;;;10.50;99.90;;;;;;4970295;28;20491;-74
2022/10/01 08:39:38;;;;;;;3.78;1.27;;;10.50;99.90;;;;;;4970409;28;20036;-73
2022/10/01 08:42:24;;;;;;;1.23;0.80;;;10.50;99.90;;;;;;4971299;28;20034;-74
2022/10/01 08:44:51;;;;;;;2.13;1.38;;;10.50;99.90;;;;;;4971692;28;20027;-74
2022/10/01 08:47:48;;;;;;;3.70;1.15;;;10.50;99.90;;;;;;4971636;28;20531;-73
2022/10/01 08:50:43;;;;;;;5.55;2.30;;;10.50;99.90;;;;;;4990910;28;20482;-73
2022/10/01 08:53:43;;;;;;;2.75;0.60;;;10.50;99.90;;;;;;4985986;28;20327;-73
2022/10/01 08:56:33;;;;;;;1.63;1.35;;;10.60;99.90;;;;;;4973385;28;20030;-74
2022/10/01 08:59:11;;;;;;;0.63;0.60;;;10.60;99.90;;;;;;4989143;28;20030;-75
2022/10/01 09:01:37;;;;;;;1.67;1.08;;;10.60;99.90;;;;;;4988496;28;20530;-76
2022/10/01 09:04:04;;;;;;;1.92;1.20;;;10.70;99.90;;;;;;4973684;28;20030;-75
2022/10/01 09:06:30;;;;;;;1.52;1.20;;;10.70;99.90;;;;;;4974160;28;20480;-74
2022/10/01 09:09:14;;;;;;;11.50;1.42;;;10.70;99.90;;;;;;4972804;28;20027;-71
2022/10/01 09:11:49;;;;;;;1.25;0.93;;;10.70;99.90;;;;;;4973753;28;20041;-76
2022/10/01 09:14:35;;;;;;;0.85;0.73;;;10.80;99.90;;;;;;4973639;28;20047;-74
2022/10/01 09:17:29;;;;;;;1.55;1.30;;;10.80;99.90;;;;;;4974088;28;20030;-75
2022/10/01 09:20:11;;;;;;;2.33;1.00;;;10.80;99.90;;;;;;4973981;28;20045;-75
2022/10/01 09:22:58;;;;;;;1.25;0.73;;;10.80;99.90;;;;;;4973405;28;20067;-75
2022/10/01 09:25:29;;;;;;;1.15;1.05;;;10.90;99.90;;;;;;4972864;28;20483;-74
2022/10/01 09:28:21;;;;;;;2.92;0.73;;;10.80;99.90;;;;;;4988854;28;20030;-74
2022/10/01 09:31:20;;;;;;;1.45;0.90;;;10.90;99.90;;;;;;4973986;28;20039;-74
2022/10/01 09:33:56;;;;;;;0.82;0.65;;;10.90;99.90;;;;;;4973417;28;20113;-74
2022/10/01 09:36:36;;;;;;;0.70;0.70;;;10.90;99.90;;;;;;4972525;28;20035;-75
2022/10/01 09:39:19;;;;;;;0.98;0.75;;;10.90;99.90;;;;;;4973863;28;20043;-74
2022/10/01 09:41:45;;;;;;;1.52;0.77;;;11.00;99.90;;;;;;4973890;28;20108;-73
2022/10/01 09:44:19;;;;;;;1.08;0.63;;;11.00;99.90;;;;;;4973088;28;20027;-74
2022/10/01 09:46:46;;;;;;;2.10;0.52;;;11.00;99.90;;;;;;4973603;28;20035;-74
2022/10/01 09:49:38;;;;;;;2.00;1.30;;;11.10;99.90;;;;;;4990257;28;20034;-74
2022/10/01 09:52:16;;;;;;;0.88;0.57;;;11.10;99.90;;;;;;4991917;28;20022;-74
2022/10/01 09:55:16;;;;;;;5.50;1.00;;;11.10;99.90;;;;;;4992139;28;20121;-75
2022/10/01 09:57:56;;;;;;;1.17;0.60;;;11.10;99.90;;;;;;4981052;28;20078;-75
2022/10/01 10:00:25;;;;;;;5.03;2.75;;;11.20;99.90;;;;;;4971754;28;20035;-75
2022/10/01 10:02:53;;;;;;;2.15;0.90;;;11.20;99.90;;;;;;4970783;28;20058;-75
2022/10/01 10:05:28;;;;;;;0.50;0.35;;;11.20;99.90;;;;;;4971336;28;20376;-82
2022/10/01 10:08:03;;;;;;;2.58;0.90;;;11.30;99.90;;;;;;4972888;28;20027;-75
2022/10/01 10:10:36;;;;;;;1.25;0.82;;;11.30;99.90;;;;;;4973228;28;20035;-74
2022/10/01 10:13:09;;;;;;;2.72;0.80;;;11.30;99.90;;;;;;4987182;28;20034;-74
2022/10/01 10:15:42;;;;;;;1.50;0.80;;;11.30;99.90;;;;;;4972751;28;20481;-75
2022/10/01 10:18:16;;;;;;;1.92;1.30;;;11.40;99.90;;;;;;4995770;28;20034;-75
2022/10/01 10:20:52;;;;;;;1.80;1.05;;;11.60;99.90;;;;;;4991766;28;20038;-75
2022/10/01 10:23:21;;;;;;;1.00;0.68;;;11.60;99.90;;;;;;4990968;28;20026;-75
2022/10/01 10:26:01;;;;;;;0.65;0.50;;;11.60;99.90;;;;;;4991016;28;20038;-73
2022/10/01 10:28:47;;;;;;;2.20;0.90;;;11.80;99.90;;;;;;4990967;28;20038;-73
2022/10/01 10:31:23;;;;;;;0.73;0.65;;;11.80;99.90;;;;;;4991909;28;20047;-74
2022/10/01 10:34:05;;;;;;;1.00;0.70;;;11.90;99.90;;;;;;4990926;28;20030;-73
2022/10/01 10:36:35;;;;;;;2.05;0.55;;;11.90;99.90;;;;;;4990655;28;20078;-74
2022/10/01 10:39:04;;;;;;;1.10;0.60;;;11.90;99.90;;;;;;4974802;28;20034;-73
2022/10/01 10:41:33;;;;;;;1.30;0.80;;;12.00;99.90;;;;;;4990895;28;20081;-74
2022/10/01 10:44:06;;;;;;;1.38;0.63;;;11.90;99.90;;;;;;4990317;28;20023;-73
2022/10/01 10:46:36;;;;;;;1.17;0.60;;;12.00;99.90;;;;;;4990108;28;20025;-73
2022/10/01 10:49:14;;;;;;;0.88;0.55;;;12.00;99.90;;;;;;5002607;28;20023;-73
2022/10/01 10:51:54;;;;;;;1.90;0.68;;;12.00;99.90;;;;;;4990294;28;20065;-74
2022/10/01 10:54:38;;;;;;;1.45;0.60;;;12.10;99.90;;;;;;4991598;28;20617;-75
2022/10/01 10:57:26;;;;;;;1.35;0.85;;;12.00;99.90;;;;;;4969436;28;20113;-75
2022/10/01 11:00:00;;;;;;;1.10;0.70;;;12.10;99.90;;;;;;4976839;28;20057;-75
2022/10/01 11:02:31;;;;;;;0.40;0.40;;;12.10;99.90;;;;;;4962457;28;20073;-75
2022/10/01 11:05:22;;;;;;;0.98;0.60;;;12.10;99.90;;;;;;4942044;28;20436;-75
2022/10/01 11:07:54;;;;;;;0.73;0.60;;;12.20;99.90;;;;;;4970313;28;20121;-76
2022/10/01 11:10:25;;;;;;;0.60;0.60;;;12.20;99.90;;;;;;4984603;28;20030;-74
2022/10/01 11:13:38;;;;;;;1.42;0.50;;;12.20;99.90;;;;;;4952419;29;20484;-74
2022/10/01 11:17:04;;;;;;;0.35;0.28;;;12.30;99.90;;;;;;4929139;28;20039;-75
2022/10/01 11:20:26;;;;;;;0.75;0.47;;;12.40;99.90;;;;;;4950705;28;20371;-74
2022/10/01 11:23:35;;;;;;;0.50;0.40;;;12.40;99.90;;;;;;4973271;28;20042;-75
2022/10/01 11:26:11;;;;;;;3.72;0.45;;;12.50;99.90;;;;;;5000278;28;20102;-75
2022/10/01 11:29:08;;;;;;;0.20;0.10;;;12.70;99.90;;;;;;4971201;28;20118;-75
2022/10/01 11:32:01;;;;;;;0.43;0.20;;;12.60;99.90;;;;;;4984735;28;20122;-74
2022/10/01 11:34:36;;;;;;;1.73;0.52;;;12.60;99.90;;;;;;4985620;28;20033;-74
2022/10/01 11:37:38;;;;;;;0.38;0.38;;;12.80;99.90;;;;;;4985969;28;20112;-74
2022/10/01 11:40:35;;;;;;;2.88;0.50;;;12.70;99.90;;;;;;4984636;28;20374;-75
2022/10/01 11:43:26;;;;;;;0.30;0.25;;;12.60;99.90;;;;;;4971218;28;20081;-75
2022/10/01 11:46:02;;;;;;;1.60;0.63;;;12.80;99.90;;;;;;4985770;28;20482;-73
2022/10/01 11:48:38;;;;;;;1.45;0.35;;;12.70;99.90;;;;;;4982012;28;20065;-75
2022/10/01 11:51:14;;;;;;;0.80;0.30;;;12.70;99.90;;;;;;4973762;28;20106;-74
2022/10/01 11:53:51;;;;;;;0.43;0.40;;;12.70;99.90;;;;;;4989627;28;20041;-75
2022/10/01 11:59:50;;;;;;;0.52;0.52;;;12.90;99.90;;;;;;4991164;28;20064;-73
2022/10/01 12:02:46;;;;;;;0.47;0.38;;;13.20;99.90;;;;;;4986242;28;20074;-73
2022/10/01 12:05:20;;;;;;;0.98;0.32;;;13.20;99.90;;;;;;4984125;28;20039;-72
2022/10/01 12:08:06;;;;;;;0.75;0.43;;;13.30;99.90;;;;;;4969802;28;20019;-73
2022/10/01 12:10:43;;;;;;;0.10;0.10;;;13.40;99.90;;;;;;4982540;28;20035;-75
2022/10/01 12:13:23;;;;;;;0.35;0.35;;;13.30;99.90;;;;;;4969260;28;20066;-73
2022/10/01 12:16:14;;;;;;;2.38;0.40;;;13.30;99.90;;;;;;4951266;28;20039;-73
2022/10/01 12:19:05;;;;;;;3.47;0.63;;;13.30;99.90;;;;;;4992418;28;20032;-73
2022/10/01 12:21:50;;;;;;;0.43;0.30;;;13.20;99.90;;;;;;4990909;28;20078;-73
2022/10/01 12:24:28;;;;;;;0.17;0.15;;;13.30;99.90;;;;;;4973557;28;20285;-74
2022/10/01 12:27:28;;;;;;;0.22;0.20;;;13.40;99.90;;;;;;4989689;28;20019;-78
2022/10/01 12:30:32;;;;;;;0.22;0.20;;;13.40;99.90;;;;;;4993241;28;20089;-73
2022/10/01 12:33:41;;;;;;;0.85;0.43;;;13.30;99.90;;;;;;4994690;28;20042;-73
2022/10/01 12:36:35;;;;;;;0.17;0.17;;;13.40;99.90;;;;;;4994801;28;20031;-73
2022/10/01 12:40:16;;;;;;;0.30;0.13;;;13.60;99.90;;;;;;4993544;28;20139;-72
2022/10/01 12:43:16;;;;;;;1.88;0.55;;;13.60;99.90;;;;;;4972398;28;20061;-72
2022/10/01 12:46:09;;;;;;;1.05;0.52;;;13.50;99.90;;;;;;4972907;28;20035;-73
2022/10/01 12:49:14;;;;;;;0.20;0.20;;;13.50;99.90;;;;;;4972544;28;20039;-74
2022/10/01 12:51:51;;;;;;;2.00;0.47;;;13.30;99.90;;;;;;4972530;28;20077;-73
2022/10/01 12:54:49;;;;;;;1.10;0.65;;;13.30;99.90;;;;;;4972175;28;20039;-73
2022/10/01 12:57:45;;;;;;;1.10;0.40;;;13.20;99.90;;;;;;4972100;28;20100;-73
2022/10/01 13:00:21;;;;;;;0.32;0.20;;;13.20;99.90;;;;;;4972605;28;20046;-73
2022/10/01 13:03:11;;;;;;;0.57;0.38;;;13.30;99.90;;;;;;4956123;28;20047;-72
2022/10/01 13:06:05;;;;;;;0.20;0.20;;;13.40;99.90;;;;;;4956129;28;20102;-73
2022/10/01 13:09:14;;;;;;;0.38;0.22;;;13.50;99.90;;;;;;4972015;28;20410;-78
2022/10/01 13:12:14;;;;;;;0.68;0.50;;;13.60;99.90;;;;;;4932788;29;20131;-73
2022/10/01 13:14:43;;;;;;;0.80;0.50;;;13.60;99.90;;;;;;4967289;28;20113;-73
2022/10/01 13:17:38;;;;;;;0.90;0.50;;;13.60;99.90;;;;;;4970316;28;20035;-73
2022/10/01 13:20:22;;;;;;;0.50;0.40;;;13.70;99.90;;;;;;4991417;28;20034;-73
2022/10/01 13:23:07;;;;;;;0.47;0.47;;;13.70;99.90;;;;;;4986181;28;20069;-73
2022/10/01 13:25:56;;;;;;;4.68;0.88;;;13.80;99.90;;;;;;4988122;28;20027;-74
2022/10/01 13:28:26;;;;;;;1.05;0.28;;;13.80;99.90;;;;;;4973525;28;20113;-71
2022/10/01 13:31:08;;;;;;;0.75;0.45;;;13.90;99.90;;;;;;4989429;28;20109;-72
2022/10/01 13:33:35;;;;;;;1.75;0.57;;;14.10;99.90;;;;;;4988002;28;20430;-73